Time;durP1;ratioP1;P1;durP2;ratioP2;P2;SDS_P1;SDS_P2;PMS_P1;PMS_P2;Temp;Humidity;BMP_temperature;BMP_pressure;BME280_temperature;BME280_humidity;BME280_pressure;Samples;Min_cycle;Max_cycle;Signal;HPM_P1;HPM_P2
2022/12/06 00:00:33;;;;;;;;;;;;;;;-144.99;100.00;52562.25;5016923;28;19948;-79
2022/12/06 00:03:00;;;;;;;;;;;;;;;-144.99;100.00;52594.84;5030608;28;19972;-78
2022/12/06 00:05:26;;;;;;;;;;;;;;;-144.99;100.00;52603.00;5031047;28;19986;-77
2022/12/06 00:07:53;;;;;;;;;;;;;;;-144.99;100.00;52603.00;5031099;28;19948;-77
2022/12/06 00:10:19;;;;;;;;;;;;;;;-144.99;100.00;52617.28;5028740;28;20654;-79
2022/12/06 00:12:46;;;;;;;;;;;;;;;-144.99;100.00;52615.25;5029700;28;19947;-78
2022/12/06 00:15:14;;;;;;;;;;;;;;;-144.99;100.00;52598.94;5034864;28;19962;-78
2022/12/06 00:17:40;;;;;;;;;;;;;;;-144.99;100.00;52605.03;5027623;28;19952;-78
2022/12/06 00:20:08;;;;;;;;;;;;;;;-144.99;100.00;52582.63;5031338;28;19941;-78
2022/12/06 00:22:34;;;;;;;;;;;;;;;-144.99;100.00;52600.97;5029977;28;19938;-79
2022/12/06 00:25:01;;;;;;;;;;;;;;;-144.99;100.00;52590.78;5031739;28;19947;-80
2022/12/06 00:27:27;;;;;;;;;;;;;;;-144.99;100.00;52550.00;5014952;28;19953;-79
2022/12/06 00:29:53;;;;;;;;;;;;;;;-144.99;100.00;52582.63;5028300;28;19946;-80
2022/12/06 00:32:21;;;;;;;;;;;;;;;-144.99;100.00;52578.53;5018621;28;19930;-79
2022/12/06 00:34:48;;;;;;;;;;;;;;;-144.99;100.00;52631.53;5032017;28;20002;-81
2022/12/06 00:37:14;;;;;;;;;;;;;;;-144.99;100.00;52550.00;5034311;28;19948;-79
2022/12/06 00:39:55;;;;;;;;;;;;;;;-144.99;100.00;52611.16;5029179;28;19960;-80
2022/12/06 00:42:21;;;;;;;;;;;;;;;-144.99;100.00;52594.84;5033205;28;19947;-80
2022/12/06 00:44:48;;;;;;;;;;;;;;;-144.99;100.00;52621.34;5012138;28;19942;-79
2022/12/06 00:47:14;;;;;;;;;;;;;;;-144.99;100.00;52609.13;5006905;28;19947;-79
2022/12/06 00:49:44;;;;;;;;;;;;;;;-144.99;100.00;52584.66;5018739;28;19925;-79
2022/12/06 00:52:11;;;;;;;;;;;;;;;-144.99;100.00;52615.25;5001773;28;19983;-78
2022/12/06 00:54:37;;;;;;;;;;;;;;;-144.99;100.00;52603.00;5012316;28;19961;-79
2022/12/06 00:57:04;;;;;;;;;;;;;;;-144.99;100.00;52586.69;5010143;28;19995;-79
2022/12/06 00:59:30;;;;;;;;;;;;;;;-144.99;100.00;52558.16;4998798;28;19980;-80
2022/12/06 01:01:57;;;;;;;;;;;;;;;-144.99;100.00;52619.31;5010487;28;19943;-79
2022/12/06 01:04:23;;;;;;;;;;;;;;;-144.99;100.00;52623.38;5012091;28;19941;-79
2022/12/06 01:06:53;;;;;;;;;;;;;;;-144.99;100.00;52578.53;5001294;28;19991;-80
2022/12/06 01:09:20;;;;;;;;;;;;;;;-144.99;100.00;52592.81;5013608;28;19969;-79
2022/12/06 01:11:47;;;;;;;;;;;;;;;-144.99;100.00;52580.59;5011537;28;19933;-80
2022/12/06 01:14:13;;;;;;;;;;;;;;;-144.99;100.00;52574.47;5008824;28;19936;-79
2022/12/06 01:16:43;;;;;;;;;;;;;;;-144.99;100.00;52611.16;5000642;28;20194;-79
2022/12/06 01:19:11;;;;;;;;;;;;;;;-144.99;100.00;52576.50;5000627;28;20519;-77
2022/12/06 01:21:38;;;;;;;;;;;;;;;-144.99;100.00;52578.53;5025163;28;19941;-77
2022/12/06 01:24:06;;;;;;;;;;;;;;;-144.99;100.00;52570.38;5029767;28;20217;-77
2022/12/06 01:26:34;;;;;;;;;;;;;;;-144.99;100.00;52603.00;5027885;28;19941;-77
2022/12/06 01:29:01;;;;;;;;;;;;;;;-144.99;100.00;52598.94;5017449;28;19986;-77
2022/12/06 01:31:27;;;;;;;;;;;;;;;-144.99;100.00;52611.16;5009236;28;19990;-76
2022/12/06 01:33:54;;;;;;;;;;;;;;;-144.99;100.00;52607.09;5014528;28;20020;-76
2022/12/06 01:36:22;;;;;;;;;;;;;;;-144.99;100.00;52598.94;5023856;28;19958;-78
2022/12/06 01:38:49;;;;;;;;;;;;;;;-144.99;100.00;52582.63;5034724;28;19939;-77
2022/12/06 01:41:17;;;;;;;;;;;;;;;-144.99;100.00;52619.31;5031163;28;19929;-77
2022/12/06 01:43:44;;;;;;;;;;;;;;;-144.99;100.00;52592.81;5030849;28;19940;-77
2022/12/06 01:46:16;;;;;;;;;;;;;;;-144.99;100.00;52598.94;5029869;28;19947;-77
2022/12/06 01:48:43;;;;;;;;;;;;;;;-144.99;100.00;52562.25;5026714;28;19955;-76
2022/12/06 01:51:10;;;;;;;;;;;;;;;-144.99;100.00;52554.09;5031721;28;19942;-77
2022/12/06 01:53:37;;;;;;;;;;;;;;;-144.99;100.00;52525.56;5029081;28;19937;-76
2022/12/06 01:56:04;;;;;;;;;;;;;;;-144.99;100.00;52619.31;5019553;28;19976;-77
2022/12/06 01:58:35;;;;;;;;;;;;;;;-144.99;100.00;52635.63;5024497;28;19952;-78
2022/12/06 02:01:02;;;;;;;;;;;;;;;-144.99;100.00;52580.59;5024070;28;19953;-77
2022/12/06 02:03:32;;;;;;;;;;;;;;;-144.99;100.00;52590.78;5026564;28;19959;-76
2022/12/06 02:05:59;;;;;;;;;;;;;;;-144.99;100.00;52598.94;5022399;28;19940;-77
2022/12/06 02:08:26;;;;;;;;;;;;;;;-144.99;100.00;52603.00;5028836;28;19913;-77
2022/12/06 02:10:53;;;;;;;;;;;;;;;-144.99;100.00;52584.66;5030969;28;19946;-77
2022/12/06 02:13:19;;;;;;;;;;;;;;;-144.99;100.00;52631.53;5030124;28;19946;-78
2022/12/06 02:15:53;;;;;;;;;;;;;;;-144.99;100.00;52564.28;5032247;28;19979;-77
2022/12/06 02:18:26;;;;;;;;;;;;;;;-144.99;100.00;52584.66;5027163;28;19962;-78
2022/12/06 02:20:59;;;;;;;;;;;;;;;-144.99;100.00;52566.31;5031735;28;19952;-77
2022/12/06 02:23:43;;;;;;;;;;;;;;;-144.99;100.00;52586.69;5028654;28;20019;-76
2022/12/06 02:26:16;;;;;;;;;;;;;;;-144.99;100.00;52578.53;4998607;28;19944;-77
2022/12/06 02:28:59;;;;;;;;;;;;;;;-144.99;100.00;52609.13;5027130;28;19979;-77
2022/12/06 02:31:30;;;;;;;;;;;;;;;-144.99;100.00;52596.88;5019203;28;20354;-77
2022/12/06 02:33:59;;;;;;;;;;;;;;;-144.99;100.00;52550.00;5024440;28;19961;-77
2022/12/06 02:36:29;;;;;;;;;;;;;;;-144.99;100.00;52576.50;5022383;28;19988;-78
2022/12/06 02:39:02;;;;;;;;;;;;;;;-144.99;100.00;52572.44;5012631;28;20454;-78
2022/12/06 02:41:32;;;;;;;;;;;;;;;-144.99;100.00;52607.09;5006960;28;20006;-77
2022/12/06 02:44:01;;;;;;;;;;;;;;;-144.99;100.00;52572.44;5007311;28;19944;-78
2022/12/06 02:46:31;;;;;;;;;;;;;;;-144.99;100.00;52566.31;5002624;28;19926;-78
2022/12/06 02:48:59;;;;;;;;;;;;;;;-144.99;100.00;52570.38;5016452;28;19967;-77
2022/12/06 02:51:27;;;;;;;;;;;;;;;-144.99;100.00;52550.00;5017956;28;19944;-77
2022/12/06 02:53:57;;;;;;;;;;;;;;;-144.99;100.00;52578.53;5017475;28;19958;-77
2022/12/06 02:56:23;;;;;;;;;;;;;;;-144.99;100.00;52572.44;5017183;28;19936;-79
2022/12/06 02:58:50;;;;;;;;;;;;;;;-144.99;100.00;52578.53;5023452;28;19960;-78
2022/12/06 03:01:18;;;;;;;;;;;;;;;-144.99;100.00;52586.69;5021767;28;19964;-78
2022/12/06 03:03:52;;;;;;;;;;;;;;;-144.99;100.00;52596.88;5024935;28;19928;-79
2022/12/06 03:06:31;;;;;;;;;;;;;;;-144.99;100.00;52578.53;5014555;28;19940;-79
2022/12/06 03:09:04;;;;;;;;;;;;;;;-144.99;100.00;52590.78;5019057;28;20398;-78
2022/12/06 03:11:37;;;;;;;;;;;;;;;-144.99;100.00;52529.63;5004119;28;19938;-79
2022/12/06 03:14:07;;;;;;;;;;;;;;;-144.99;100.00;52582.63;5010387;28;19947;-78
2022/12/06 03:16:40;;;;;;;;;;;;;;;-144.99;100.00;52623.38;5001720;28;20373;-78
2022/12/06 03:19:13;;;;;;;;;;;;;;;-144.99;100.00;52598.94;5003896;28;19956;-78
2022/12/06 03:21:42;;;;;;;;;;;;;;;-144.99;100.00;52605.03;5002475;28;19991;-79
2022/12/06 03:24:13;;;;;;;;;;;;;;;-144.99;100.00;52586.69;5009598;28;20454;-77
2022/12/06 03:26:40;;;;;;;;;;;;;;;-144.99;100.00;52562.25;5015269;28;20377;-78
2022/12/06 03:29:08;;;;;;;;;;;;;;;-144.99;100.00;52558.16;5014285;28;20331;-78
2022/12/06 03:31:36;;;;;;;;;;;;;;;-144.99;100.00;52582.63;5012582;28;19971;-77
2022/12/06 03:34:14;;;;;;;;;;;;;;;-144.99;100.00;52574.47;5013247;28;19929;-81
2022/12/06 03:36:43;;;;;;;;;;;;;;;-144.99;100.00;52562.25;5010681;28;19964;-79
2022/12/06 03:39:14;;;;;;;;;;;;;;;-144.99;100.00;52594.84;5003746;28;20475;-79
2022/12/06 03:41:43;;;;;;;;;;;;;;;-144.99;100.00;52586.69;5006134;28;20049;-79
2022/12/06 03:44:12;;;;;;;;;;;;;;;-144.99;100.00;52550.00;5013173;28;20014;-80
2022/12/06 03:46:41;;;;;;;;;;;;;;;-144.99;100.00;52566.31;5009122;28;19937;-79
2022/12/06 03:49:11;;;;;;;;;;;;;;;-144.99;100.00;52578.53;5011918;28;19959;-80
2022/12/06 03:51:38;;;;;;;;;;;;;;;-144.99;100.00;52621.34;5012002;28;19939;-80
2022/12/06 03:54:07;;;;;;;;;;;;;;;-144.99;100.00;52619.31;5005871;28;20481;-80
2022/12/06 03:56:43;;;;;;;;;;;;;;;-144.99;100.00;52578.53;5002453;28;19960;-79
2022/12/06 03:59:10;;;;;;;;;;;;;;;-144.99;100.00;52558.16;5012110;28;20404;-81
2022/12/06 04:01:39;;;;;;;;;;;;;;;-144.99;100.00;52558.16;5008720;28;20000;-81
2022/12/06 04:04:06;;;;;;;;;;;;;;;-144.99;100.00;52572.44;5015824;28;19950;-80
2022/12/06 04:06:33;;;;;;;;;;;;;;;-144.99;100.00;52617.28;5008510;28;19939;-81
2022/12/06 04:11:41;;;;;;;;;;;;;;;-144.99;100.00;52566.31;5006506;28;19940;-80
2022/12/06 04:14:07;;;;;;;;;;;;;;;-144.99;100.00;52594.84;5016284;28;19943;-80
2022/12/06 04:19:20;;;;;;;;;;;;;;;-144.99;100.00;52623.38;5014444;28;20027;-81
2022/12/06 04:24:38;;;;;;;;;;;;;;;-144.99;100.00;52615.25;4991330;28;19944;-78
2022/12/06 04:40:42;;;;;;;;;;;;;;;-144.99;100.00;52590.78;5006691;28;20519;-76
2022/12/06 04:45:53;;;;;;;;;;;;;;;-144.99;100.00;52570.38;4995508;28;19926;-78
2022/12/06 04:48:23;;;;;;;;;;;;;;;-144.99;100.00;52598.94;5014211;28;19965;-79
2022/12/06 04:50:49;;;;;;;;;;;;;;;-144.99;100.00;52607.09;5005696;28;20308;-79
2022/12/06 04:53:16;;;;;;;;;;;;;;;-144.99;100.00;52594.84;5009392;28;19944;-79
2022/12/06 04:55:45;;;;;;;;;;;;;;;-144.99;100.00;52615.25;5007428;28;20436;-79
2022/12/06 04:58:13;;;;;;;;;;;;;;;-144.99;100.00;52627.47;5003316;28;20509;-79
2022/12/06 05:00:42;;;;;;;;;;;;;;;-144.99;100.00;52566.31;5006755;28;19979;-78
2022/12/06 05:03:09;;;;;;;;;;;;;;;-144.99;100.00;52556.13;5012213;28;20309;-79
2022/12/06 05:05:35;;;;;;;;;;;;;;;-144.99;100.00;52541.84;5012398;28;19940;-79
2022/12/06 05:08:02;;;;;;;;;;;;;;;-144.99;100.00;52554.09;5013264;28;20512;-79
2022/12/06 05:10:28;;;;;;;;;;;;;;;-144.99;100.00;52617.28;5013225;28;19964;-79
2022/12/06 05:12:54;;;;;;;;;;;;;;;-144.99;100.00;52594.84;5009582;28;19945;-79
2022/12/06 05:15:22;;;;;;;;;;;;;;;-144.99;100.00;52594.84;5005335;28;20011;-78
2022/12/06 05:17:49;;;;;;;;;;;;;;;-144.99;100.00;52578.53;5011597;28;19961;-79
2022/12/06 05:20:15;;;;;;;;;;;;;;;-144.99;100.00;52592.81;5021210;28;20407;-77
2022/12/06 05:22:42;;;;;;;;;;;;;;;-144.99;100.00;52611.16;5026943;28;19936;-77
2022/12/06 05:25:09;;;;;;;;;;;;;;;-144.99;100.00;52586.69;5016224;28;19946;-77
2022/12/06 05:27:35;;;;;;;;;;;;;;;-144.99;100.00;52594.84;5011073;28;20451;-77
2022/12/06 05:30:02;;;;;;;;;;;;;;;-144.99;100.00;52603.00;5008631;28;19945;-77
2022/12/06 05:32:30;;;;;;;;;;;;;;;-144.99;100.00;52586.69;5010514;28;20430;-77
2022/12/06 05:34:56;;;;;;;;;;;;;;;-144.99;100.00;52570.38;5038468;23;20452;-74
2022/12/06 05:37:23;;;;;;;;;;;;;;;-144.99;100.00;52566.31;4976620;28;19979;-74
2022/12/06 05:39:49;;;;;;;;;;;;;;;-144.99;100.00;52582.63;4986037;28;19953;-75
2022/12/06 05:42:16;;;;;;;;;;;;;;;-144.99;100.00;52592.81;4990761;28;19973;-75
2022/12/06 05:44:42;;;;;;;;;;;;;;;-144.99;100.00;52570.38;4990581;28;19950;-76
2022/12/06 05:47:09;;;;;;;;;;;;;;;-144.99;100.00;52586.69;4970857;28;20409;-75
2022/12/06 05:49:37;;;;;;;;;;;;;;;-144.99;100.00;52582.63;4972197;28;19960;-76
2022/12/06 05:52:03;;;;;;;;;;;;;;;-144.99;100.00;52615.25;4957677;28;19947;-77
2022/12/06 05:54:30;;;;;;;;;;;;;;;-144.99;100.00;52574.47;4962687;28;19937;-76
2022/12/06 05:56:56;;;;;;;;;;;;;;;-144.99;100.00;52578.53;4970442;28;20064;-76
2022/12/06 05:59:23;;;;;;;;;;;;;;;-144.99;100.00;52619.31;4964925;28;19997;-77
2022/12/06 06:01:49;;;;;;;;;;;;;;;-144.99;100.00;52586.69;4970406;28;20009;-77
2022/12/06 06:04:16;;;;;;;;;;;;;;;-144.99;100.00;52578.53;4971385;28;20356;-77
2022/12/06 06:06:44;;;;;;;;;;;;;;;-144.99;100.00;52611.16;4971439;28;19963;-78
2022/12/06 06:09:10;;;;;;;;;;;;;;;-144.99;100.00;52584.66;4977828;28;20395;-77
2022/12/06 06:11:37;;;;;;;;;;;;;;;-144.99;100.00;52586.69;4970492;28;19948;-77
2022/12/06 06:14:03;;;;;;;;;;;;;;;-144.99;100.00;52576.50;4970250;28;20468;-75
2022/12/06 06:16:31;;;;;;;;;;;;;;;-144.99;100.00;52619.31;4969857;28;19979;-76
2022/12/06 06:19:00;;;;;;;;;;;;;;;-144.99;100.00;52590.78;4969939;28;19926;-75
2022/12/06 06:21:27;;;;;;;;;;;;;;;-144.99;100.00;52607.09;4281121;28;10000821;-77
2022/12/06 06:23:57;;;;;;;;;;;;;;;-144.99;100.00;52623.38;4971682;28;20075;-76
2022/12/06 06:26:24;;;;;;;;;;;;;;;-144.99;100.00;52631.53;4973226;28;19997;-75
2022/12/06 06:28:51;;;;;;;;;;;;;;;-144.99;100.00;52578.53;4968312;28;20428;-77
2022/12/06 06:31:17;;;;;;;;;;;;;;;-144.99;100.00;52590.78;4972269;28;19980;-76
2022/12/06 06:33:44;;;;;;;;;;;;;;;-144.99;100.00;52625.44;4972708;28;19965;-77
2022/12/06 06:36:10;;;;;;;;;;;;;;;-144.99;100.00;52574.47;4970274;28;20423;-76
2022/12/06 06:38:37;;;;;;;;;;;;;;;-144.99;100.00;52574.47;4972495;28;20012;-78
2022/12/06 06:41:05;;;;;;;;;;;;;;;-144.99;100.00;52578.53;4991401;28;19933;-76
2022/12/06 06:43:32;;;;;;;;;;;;;;;-144.99;100.00;52576.50;4970234;28;19999;-74
2022/12/06 06:45:59;;;;;;;;;;;;;;;-144.99;100.00;52586.69;4975456;28;19967;-76
2022/12/06 06:48:27;;;;;;;;;;;;;;;-144.99;100.00;52598.94;4981139;28;19948;-76
2022/12/06 06:50:53;;;;;;;;;;;;;;;-144.99;100.00;52647.84;4982818;28;19979;-76
2022/12/06 06:53:20;;;;;;;;;;;;;;;-144.99;100.00;52580.59;4982294;28;20331;-76
2022/12/06 06:55:47;;;;;;;;;;;;;;;-144.99;100.00;52594.84;4984144;28;19980;-74
2022/12/06 06:58:15;;;;;;;;;;;;;;;-144.99;100.00;52586.69;4985619;28;19931;-76
2022/12/06 07:00:42;;;;;;;;;;;;;;;-144.99;100.00;52598.94;4983846;28;20037;-75
2022/12/06 07:03:13;;;;;;;;;;;;;;;-144.99;100.00;52578.53;4968807;28;20210;-75
2022/12/06 07:05:39;;;;;;;;;;;;;;;-144.99;100.00;52588.75;4971331;28;19960;-74
2022/12/06 07:08:06;;;;;;;;;;;;;;;-144.99;100.00;52558.16;4975171;28;20318;-75
2022/12/06 07:10:33;;;;;;;;;;;;;;;-144.99;100.00;52554.09;4971821;28;19960;-75
2022/12/06 07:12:59;;;;;;;;;;;;;;;-144.99;100.00;52598.94;4975515;28;19948;-75
2022/12/06 07:15:27;;;;;;;;;;;;;;;-144.99;100.00;52643.78;4985584;28;19962;-77
2022/12/06 07:17:53;;;;;;;;;;;;;;;-144.99;100.00;52590.78;4981499;28;20439;-75
2022/12/06 07:20:20;;;;;;;;;;;;;;;-144.99;100.00;52617.28;4978954;28;19948;-75
2022/12/06 07:22:46;;;;;;;;;;;;;;;-144.99;100.00;52554.09;4979912;28;19930;-75
2022/12/06 07:25:13;;;;;;;;;;;;;;;-144.99;100.00;52613.19;4979006;28;19981;-75
2022/12/06 07:27:40;;;;;;;;;;;;;;;-144.99;100.00;52621.34;4973060;28;20019;-75
2022/12/06 07:30:07;;;;;;;;;;;;;;;-144.99;100.00;52590.78;4971916;28;19993;-75
2022/12/06 07:32:36;;;;;;;;;;;;;;;-144.99;100.00;52598.94;4970474;28;20378;-75
2022/12/06 07:35:02;;;;;;;;;;;;;;;-144.99;100.00;52645.81;4967596;28;19951;-76
2022/12/06 07:37:29;;;;;;;;;;;;;;;-144.99;100.00;52594.84;4967997;28;20314;-75
2022/12/06 07:39:55;;;;;;;;;;;;;;;-144.99;100.00;52600.97;4971488;28;19953;-77
2022/12/06 07:45:07;;;;;;;;;;;;;;;-144.99;100.00;52615.25;4969943;28;19951;-75
2022/12/06 07:47:36;;;;;;;;;;;;;;;-144.99;100.00;52578.53;4968902;28;20393;-75
2022/12/06 07:50:03;;;;;;;;;;;;;;;-144.99;100.00;52613.19;4988838;28;19932;-75
2022/12/06 07:52:32;;;;;;;;;;;;;;;-144.99;100.00;52594.84;4983645;28;19940;-76
2022/12/06 07:54:59;;;;;;;;;;;;;;;-144.99;100.00;52590.78;4965431;28;19956;-75
2022/12/06 07:57:25;;;;;;;;;;;;;;;-144.99;100.00;52598.94;4972735;28;19957;-76
2022/12/06 07:59:52;;;;;;;;;;;;;;;-144.99;100.00;52645.81;4967373;28;19930;-76
2022/12/06 08:02:19;;;;;;;;;;;;;;;-144.99;100.00;52603.00;4967250;28;20027;-76
2022/12/06 08:04:47;;;;;;;;;;;;;;;-144.99;100.00;52570.38;4966672;28;19963;-76
2022/12/06 08:07:14;;;;;;;;;;;;;;;-144.99;100.00;52619.31;4974591;28;20007;-77
2022/12/06 08:09:41;;;;;;;;;;;;;;;-144.99;100.00;52623.38;4974184;28;19948;-76
2022/12/06 08:12:07;;;;;;;;;;;;;;;-144.99;100.00;52586.69;4970879;28;19951;-77
2022/12/06 08:14:34;;;;;;;;;;;;;;;-144.99;100.00;52562.25;4971808;28;20044;-74
2022/12/06 08:17:00;;;;;;;;;;;;;;;-144.99;100.00;52598.94;4970736;28;20013;-75
2022/12/06 08:19:27;;;;;;;;;;;;;;;-144.99;100.00;52607.09;4973514;28;20373;-76
2022/12/06 08:21:55;;;;;;;;;;;;;;;-144.99;100.00;52582.63;4970223;28;19993;-76
2022/12/06 08:24:22;;;;;;;;;;;;;;;-144.99;100.00;52582.63;4972442;28;20300;-77
2022/12/06 08:26:49;;;;;;;;;;;;;;;-144.99;100.00;52578.53;4971578;28;20332;-76
2022/12/06 08:29:15;;;;;;;;;;;;;;;-144.99;100.00;52619.31;4967513;28;20024;-75
2022/12/06 08:31:42;;;;;;;;;;;;;;;-144.99;100.00;52582.63;4969513;28;19934;-75
2022/12/06 08:34:09;;;;;;;;;;;;;;;-144.99;100.00;52541.84;4970462;28;20282;-76
2022/12/06 08:36:37;;;;;;;;;;;;;;;-144.99;100.00;52596.88;4971521;28;20019;-75
2022/12/06 08:39:05;;;;;;;;;;;;;;;-144.99;100.00;52594.84;4972037;28;20008;-76
2022/12/06 08:44:17;;;;;;;;;;;;;;;-144.99;100.00;52598.94;4974072;28;19956;-76
2022/12/06 08:46:43;;;;;;;;;;;;;;;-144.99;100.00;52598.94;4978768;28;19961;-75
2022/12/06 08:49:11;;;;;;;;;;;;;;;-144.99;100.00;52582.63;4981076;28;19992;-74
2022/12/06 08:51:38;;;;;;;;;;;;;;;-144.99;100.00;52566.31;4980175;28;20024;-77
2022/12/06 08:54:06;;;;;;;;;;;;;;;-144.99;100.00;52562.25;4979744;28;20362;-76
2022/12/06 08:56:33;;;;;;;;;;;;;;;-144.99;100.00;52586.69;4980270;28;19972;-77
2022/12/06 08:58:59;;;;;;;;;;;;;;;-144.99;100.00;52594.84;4980727;28;20093;-78
2022/12/06 09:01:26;;;;;;;;;;;;;;;-144.99;100.00;52603.00;4991050;28;19914;-75
2022/12/06 09:03:53;;;;;;;;;;;;;;;-144.99;100.00;52552.03;4988856;28;19952;-76
2022/12/06 09:06:20;;;;;;;;;;;;;;;-144.99;100.00;52570.38;4983968;28;19968;-75
2022/12/06 09:08:47;;;;;;;;;;;;;;;-144.99;100.00;52590.78;4991945;28;19947;-75
2022/12/06 09:11:15;;;;;;;;;;;;;;;-144.99;100.00;52615.25;4983246;28;19952;-75
2022/12/06 09:13:42;;;;;;;;;;;;;;;-144.99;100.00;52598.94;4975514;28;19969;-76
2022/12/06 09:16:09;;;;;;;;;;;;;;;-144.99;100.00;52623.38;4973795;28;19979;-75
2022/12/06 09:18:36;;;;;;;;;;;;;;;-144.99;100.00;52570.38;4984539;28;20078;-77
2022/12/06 09:21:04;;;;;;;;;;;;;;;-144.99;100.00;52615.25;4984389;28;19984;-75
2022/12/06 09:23:31;;;;;;;;;;;;;;;-144.99;100.00;52613.19;4984899;28;19948;-75
2022/12/06 09:25:57;;;;;;;;;;;;;;;-144.99;100.00;52576.50;4985565;28;19933;-76
2022/12/06 09:28:25;;;;;;;;;;;;;;;-144.99;100.00;52572.44;4978378;28;19992;-77
2022/12/06 09:30:52;;;;;;;;;;;;;;;-144.99;100.00;52619.31;4972245;28;19989;-77
2022/12/06 09:33:18;;;;;;;;;;;;;;;-144.99;100.00;52619.31;4969638;28;20150;-75
2022/12/06 09:35:45;;;;;;;;;;;;;;;-144.99;100.00;52625.44;4969578;28;19970;-76
2022/12/06 09:38:11;;;;;;;;;;;;;;;-144.99;100.00;52586.69;4989361;28;19954;-77
2022/12/06 09:40:42;;;;;;;;;;;;;;;-144.99;100.00;52611.16;4983186;28;19968;-74
2022/12/06 09:43:17;;;;;;;;;;;;;;;-144.99;100.00;52596.88;4972756;28;19948;-76
2022/12/06 09:45:50;;;;;;;;;;;;;;;-144.99;100.00;52586.69;4959337;28;19965;-77
2022/12/06 09:48:26;;;;;;;;;;;;;;;-144.99;100.00;52582.63;4967616;28;19946;-76
2022/12/06 09:50:57;;;;;;;;;;;;;;;-144.99;100.00;52582.63;4969503;28;20433;-78
2022/12/06 09:53:31;;;;;;;;;;;;;;;-144.99;100.00;52537.78;4970362;28;20021;-78
2022/12/06 09:56:02;;;;;;;;;;;;;;;-144.99;100.00;52633.59;4971315;28;19962;-79
2022/12/06 09:58:38;;;;;;;;;;;;;;;-144.99;100.00;52594.84;4969630;28;19974;-77
2022/12/06 10:01:12;;;;;;;;;;;;;;;-144.99;100.00;52594.84;4969580;28;20041;-77
2022/12/06 10:03:47;;;;;;;;;;;;;;;-144.99;100.00;52582.63;4956610;28;20421;-76
2022/12/06 10:06:16;;;;;;;;;;;;;;;-144.99;100.00;52603.00;4968596;28;20451;-75
2022/12/06 10:08:53;;;;;;;;;;;;;;;-144.99;100.00;52598.94;4977121;28;19954;-76
2022/12/06 10:11:28;;;;;;;;;;;;;;;-144.99;100.00;52607.09;4968968;28;19950;-73
2022/12/06 10:14:00;;;;;;;;;;;;;;;-144.99;100.00;52572.44;4992135;28;19950;-78
2022/12/06 10:16:33;;;;;;;;;;;;;;;-144.99;100.00;52603.00;4979178;28;19968;-77
2022/12/06 10:19:06;;;;;;;;;;;;;;;-144.99;100.00;52566.31;4970287;28;20022;-77
2022/12/06 10:21:37;;;;;;;;;;;;;;;-144.99;100.00;52564.28;4969884;28;19940;-79
2022/12/06 10:24:09;;;;;;;;;;;;;;;-144.99;100.00;52598.94;4974566;28;20026;-76
2022/12/06 10:26:40;;;;;;;;;;;;;;;-144.99;100.00;52562.25;4973717;28;19964;-78
2022/12/06 10:29:14;;;;;;;;;;;;;;;-144.99;100.00;52566.31;4969247;28;19945;-79
2022/12/06 10:31:46;;;;;;;;;;;;;;;-144.99;100.00;52603.00;4966758;28;19953;-78
2022/12/06 10:34:19;;;;;;;;;;;;;;;-144.99;100.00;52605.03;4970083;28;19934;-79
2022/12/06 10:36:51;;;;;;;;;;;;;;;-144.99;100.00;52611.16;4970361;28;19972;-76
2022/12/06 10:39:21;;;;;;;;;;;;;;;-144.99;100.00;52603.00;4969081;28;19967;-77
2022/12/06 10:41:51;;;;;;;;;;;;;;;-144.99;100.00;52594.84;4969087;28;20132;-78
2022/12/06 10:44:22;;;;;;;;;;;;;;;-144.99;100.00;52603.00;4962905;28;20409;-78
2022/12/06 10:47:03;;;;;;;;;;;;;;;-144.99;100.00;52603.00;4969151;28;19958;-78
2022/12/06 10:49:35;;;;;;;;;;;;;;;-144.99;100.00;52603.00;4970246;28;20351;-78
2022/12/06 10:52:05;;;;;;;;;;;;;;;-144.99;100.00;52554.09;4968736;28;19977;-77
2022/12/06 10:54:34;;;;;;;;;;;;;;;-144.99;100.00;52598.94;4970319;28;20116;-76
2022/12/06 10:57:02;;;;;;;;;;;;;;;-144.99;100.00;52619.31;4968415;28;20023;-79
2022/12/06 10:59:34;;;;;;;;;;;;;;;-144.99;100.00;52635.63;4962111;28;20029;-77
2022/12/06 11:02:14;;;;;;;;;;;;;;;-144.99;100.00;52643.78;4956446;28;20002;-76
2022/12/06 11:04:41;;;;;;;;;;;;;;;-144.99;100.00;52613.19;4969906;28;19993;-79
2022/12/06 11:07:12;;;;;;;;;;;;;;;-144.99;100.00;52615.25;4973981;28;20281;-77
2022/12/06 11:09:40;;;;;;;;;;;;;;;-144.99;100.00;52598.94;4976191;28;19968;-77
2022/12/06 11:12:17;;;;;;;;;;;;;;;-144.99;100.00;52598.94;4979149;28;19961;-78
2022/12/06 11:14:47;;;;;;;;;;;;;;;-144.99;100.00;52590.78;4969217;28;20007;-79
2022/12/06 11:17:17;;;;;;;;;;;;;;;-144.99;100.00;52578.53;4967791;28;19969;-80
2022/12/06 11:19:45;;;;;;;;;;;;;;;-144.99;100.00;52582.63;4969650;28;19970;-79
2022/12/06 11:22:14;;;;;;;;;;;;;;;-144.99;100.00;52594.84;4968442;28;20045;-78
2022/12/06 11:24:44;;;;;;;;;;;;;;;-144.99;100.00;52619.31;4983126;28;19930;-78
2022/12/06 11:27:14;;;;;;;;;;;;;;;-144.99;100.00;52598.94;4985229;28;20037;-78
2022/12/06 11:29:42;;;;;;;;;;;;;;;-144.99;100.00;52609.13;4964575;28;19951;-76
2022/12/06 11:32:09;;;;;;;;;;;;;;;-144.99;100.00;52605.03;4968703;28;19947;-78
2022/12/06 11:34:40;;;;;;;;;;;;;;;-144.99;100.00;52615.25;4968569;28;19956;-78
2022/12/06 11:37:07;;;;;;;;;;;;;;;-144.99;100.00;52623.38;4954948;28;20032;-77
2022/12/06 11:39:34;;;;;;;;;;;;;;;-144.99;100.00;52643.78;4968410;28;19972;-79
2022/12/06 11:42:02;;;;;;;;;;;;;;;-144.99;100.00;52619.31;4971859;28;19986;-77
2022/12/06 11:44:35;;;;;;;;;;;;;;;-144.99;100.00;52594.84;4972212;28;20249;-78
2022/12/06 11:47:02;;;;;;;;;;;;;;;-144.99;100.00;52603.00;4972362;28;19958;-78
2022/12/06 11:49:31;;;;;;;;;;;;;;;-144.99;100.00;52629.50;4971929;28;19961;-77
2022/12/06 11:52:01;;;;;;;;;;;;;;;-144.99;100.00;52570.38;4971380;28;20036;-78
2022/12/06 11:54:30;;;;;;;;;;;;;;;-144.99;100.00;52590.78;4963911;28;19937;-78
2022/12/06 11:56:58;;;;;;;;;;;;;;;-144.99;100.00;52586.69;4967872;28;20059;-78
2022/12/06 11:59:27;;;;;;;;;;;;;;;-144.99;100.00;52570.38;4978977;28;19929;-78
2022/12/06 12:01:55;;;;;;;;;;;;;;;-144.99;100.00;52639.69;4992912;28;19953;-77
2022/12/06 12:04:34;;;;;;;;;;;;;;;-144.99;100.00;52570.38;4972386;28;19949;-77
2022/12/06 12:07:04;;;;;;;;;;;;;;;-144.99;100.00;52590.78;4963723;28;19961;-78
2022/12/06 12:09:32;;;;;;;;;;;;;;;-144.99;100.00;52611.16;4977900;28;19944;-78
2022/12/06 12:12:01;;;;;;;;;;;;;;;-144.99;100.00;52635.63;4981324;28;19944;-77
2022/12/06 12:14:36;;;;;;;;;;;;;;;-144.99;100.00;52586.69;4972222;28;19949;-78
2022/12/06 12:17:03;;;;;;;;;;;;;;;-144.99;100.00;52603.00;4963325;28;19983;-75
2022/12/06 12:19:32;;;;;;;;;;;;;;;-144.99;100.00;52558.16;4971323;28;19950;-78
2022/12/06 12:21:59;;;;;;;;;;;;;;;-144.99;100.00;52594.84;4970336;28;20020;-76
2022/12/06 12:24:46;;;;;;;;;;;;;;;-144.99;100.00;52594.84;4970119;28;20433;-79
2022/12/06 12:27:29;;;;;;;;;;;;;;;-144.99;100.00;52635.63;4970905;28;19964;-79
2022/12/06 12:30:15;;;;;;;;;;;;;;;-144.99;100.00;52562.25;4971068;28;20413;-79
2022/12/06 12:32:42;;;;;;;;;;;;;;;-144.99;100.00;52554.09;4958624;28;19964;-77
2022/12/06 12:35:24;;;;;;;;;;;;;;;-144.99;100.00;52574.47;4987977;28;20031;-79
2022/12/06 12:37:52;;;;;;;;;;;;;;;-144.99;100.00;52605.03;4986340;28;20034;-78
2022/12/06 12:40:23;;;;;;;;;;;;;;;-144.99;100.00;52603.00;4969987;28;20420;-77
2022/12/06 12:42:56;;;;;;;;;;;;;;;-144.99;100.00;52562.25;4964612;28;20201;-76
2022/12/06 12:45:25;;;;;;;;;;;;;;;-144.99;100.00;52603.00;4971034;28;20372;-82
2022/12/06 12:47:59;;;;;;;;;;;;;;;-144.99;100.00;52574.47;4972020;28;20557;-80
2022/12/06 12:50:25;;;;;;;;;;;;;;;-144.99;100.00;52615.25;4971853;28;20479;-79
2022/12/06 12:52:53;;;;;;;;;;;;;;;-144.99;100.00;52603.00;4966350;28;19950;-80
2022/12/06 12:55:20;;;;;;;;;;;;;;;-144.99;100.00;52598.94;4972616;28;20414;-81